AAL1318 KPDX-KSAT
Flight info
| Callsign | AAL1318 |
|---|---|
| Flight time | N/A |
| Altitude | 39000 |
| Route | WHAMY5 KOATA LWL KREYK IBSKI PUMPS FAKEE MAF JCT TRVLL DNKIN2 |
| Aircraft | B77W/H-SDE1E2E3FGHIJ2J3J4J5M1RWXY/LB1D1 |
Departure
| Time | N/A |
|---|---|
| Airport | Portland International Airport (KPDX) |
Arrival
| Time | 2026-04-24 19:37 |
|---|---|
| Airport | San Antonio International Airport (KSAT) |
| Time | Latitude | Longitude | Altitude | Speed | Heading |
|---|---|---|---|---|---|
| 2026-04-24 19:20 | 29.89043 | -98.53038 | 34343 ft | 320 kts | 324° |
| 2026-04-24 19:20 | 29.90932 | -98.54256 | 33983 ft | 304 kts | 314° |
| 2026-04-24 19:21 | 29.92491 | -98.55822 | 33572 ft | 293 kts | 304° |
| 2026-04-24 19:21 | 29.93644 | -98.57698 | 33113 ft | 283 kts | 289° |
| 2026-04-24 19:21 | 29.94204 | -98.59850 | 32662 ft | 280 kts | 281° |
| 2026-04-24 19:21 | 29.94489 | -98.62067 | 32232 ft | 279 kts | 275° |
| 2026-04-24 19:22 | 29.94458 | -98.63551 | 31933 ft | 281 kts | 265° |
| 2026-04-24 19:22 | 29.93934 | -98.66504 | 31407 ft | 280 kts | 262° |
| 2026-04-24 19:22 | 29.93515 | -98.68648 | 30938 ft | 276 kts | 262° |
| 2026-04-24 19:22 | 29.93097 | -98.70817 | 30382 ft | 280 kts | 262° |
| 2026-04-24 19:23 | 29.92676 | -98.73044 | 29615 ft | 285 kts | 262° |
| 2026-04-24 19:23 | 29.92263 | -98.75256 | 28855 ft | 280 kts | 262° |
| 2026-04-24 19:23 | 29.91858 | -98.77431 | 28102 ft | 275 kts | 262° |
| 2026-04-24 19:23 | 29.91462 | -98.79569 | 27332 ft | 271 kts | 262° |
| 2026-04-24 19:24 | 29.91073 | -98.81677 | 26581 ft | 267 kts | 261° |
| 2026-04-24 19:24 | 29.90684 | -98.83760 | 25826 ft | 265 kts | 259° |
| 2026-04-24 19:24 | 29.90028 | -98.85753 | 25060 ft | 267 kts | 248° |
| 2026-04-24 19:24 | 29.89087 | -98.87609 | 24318 ft | 271 kts | 242° |
| 2026-04-24 19:25 | 29.87951 | -98.89413 | 23620 ft | 287 kts | 231° |
| 2026-04-24 19:25 | 29.86233 | -98.90767 | 22881 ft | 313 kts | 209° |
| 2026-04-24 19:25 | 29.84032 | -98.91313 | 22159 ft | 337 kts | 187° |
| 2026-04-24 19:25 | 29.81716 | -98.90783 | 21379 ft | 348 kts | 159° |
| 2026-04-24 19:26 | 29.79817 | -98.89053 | 20608 ft | 354 kts | 129° |
| 2026-04-24 19:26 | 29.78683 | -98.86559 | 19899 ft | 350 kts | 114° |
| 2026-04-24 19:26 | 29.77735 | -98.84007 | 19149 ft | 344 kts | 116° |
| 2026-04-24 19:26 | 29.76750 | -98.81519 | 18394 ft | 339 kts | 116° |
| 2026-04-24 19:27 | 29.75769 | -98.79070 | 17644 ft | 335 kts | 116° |
| 2026-04-24 19:27 | 29.74801 | -98.76652 | 16917 ft | 330 kts | 116° |
| 2026-04-24 19:27 | 29.73848 | -98.74267 | 16170 ft | 326 kts | 117° |
| 2026-04-24 19:27 | 29.72905 | -98.71908 | 15427 ft | 322 kts | 117° |
| 2026-04-24 19:28 | 29.71974 | -98.69580 | 14687 ft | 318 kts | 117° |
| 2026-04-24 19:28 | 29.70893 | -98.67413 | 13919 ft | 308 kts | 136° |
| 2026-04-24 19:28 | 29.69302 | -98.65849 | 13234 ft | 297 kts | 146° |
| 2026-04-24 19:28 | 29.67713 | -98.64374 | 12599 ft | 290 kts | 143° |
| 2026-04-24 19:29 | 29.64719 | -98.61429 | 11338 ft | 277 kts | 142° |
| 2026-04-24 19:29 | 29.63276 | -98.59992 | 10716 ft | 272 kts | 141° |
| 2026-04-24 19:29 | 29.61905 | -98.58510 | 10082 ft | 269 kts | 133° |
| 2026-04-24 19:30 | 29.60994 | -98.56660 | 9415 ft | 268 kts | 104° |
| 2026-04-24 19:30 | 29.60960 | -98.54563 | 8792 ft | 262 kts | 73° |
| 2026-04-24 19:30 | 29.61787 | -98.52757 | 8164 ft | 254 kts | 45° |
| 2026-04-24 19:30 | 29.63106 | -98.51446 | 7591 ft | 250 kts | 35° |
| 2026-04-24 19:31 | 29.64514 | -98.50269 | 6975 ft | 251 kts | 32° |
| 2026-04-24 19:31 | 29.66077 | -98.49485 | 6336 ft | 248 kts | 6° |
| 2026-04-24 19:31 | 29.67726 | -98.49686 | 5857 ft | 233 kts | 333° |
| 2026-04-24 19:31 | 29.69028 | -98.50700 | 5478 ft | 224 kts | 316° |
| 2026-04-24 19:32 | 29.70199 | -98.51946 | 5143 ft | 233 kts | 309° |
| 2026-04-24 19:32 | 29.70988 | -98.53554 | 4761 ft | 234 kts | 279° |
| 2026-04-24 19:32 | 29.70910 | -98.55380 | 4374 ft | 221 kts | 246° |
| 2026-04-24 19:32 | 29.70045 | -98.56722 | 3985 ft | 213 kts | 214° |
| 2026-04-24 19:33 | 29.68752 | -98.57523 | 3784 ft | 212 kts | 205° |
| 2026-04-24 19:33 | 29.67393 | -98.58212 | 3556 ft | 217 kts | 204° |
| 2026-04-24 19:33 | 29.65988 | -98.58914 | 3354 ft | 221 kts | 204° |
| 2026-04-24 19:33 | 29.64602 | -98.59600 | 3261 ft | 214 kts | 204° |
| 2026-04-24 19:34 | 29.63252 | -98.60263 | 3232 ft | 209 kts | 202° |
| 2026-04-24 19:34 | 29.61836 | -98.60529 | 3207 ft | 212 kts | 171° |
| 2026-04-24 19:34 | 29.60546 | -98.59791 | 3083 ft | 211 kts | 136° |
| 2026-04-24 19:34 | 29.59888 | -98.58313 | 2840 ft | 210 kts | 101° |
| 2026-04-24 19:35 | 29.59678 | -98.56678 | 2564 ft | 203 kts | 107° |
| 2026-04-24 19:35 | 29.59166 | -98.55225 | 2319 ft | 188 kts | 120° |
| 2026-04-24 19:35 | 29.58453 | -98.54055 | 2064 ft | 171 kts | 126° |
| 2026-04-24 19:35 | 29.57752 | -98.53031 | 1848 ft | 156 kts | 130° |
| 2026-04-24 19:36 | 29.57046 | -98.52133 | 1684 ft | 150 kts | 130° |
| 2026-04-24 19:36 | 29.56347 | -98.51226 | 1463 ft | 153 kts | 129° |
| 2026-04-24 19:36 | 29.55655 | -98.50332 | 1306 ft | 153 kts | 131° |
| 2026-04-24 19:36 | 29.54927 | -98.49415 | 1081 ft | 154 kts | 130° |
| 2026-04-24 19:37 | 29.54229 | -98.48504 | 877 ft | 146 kts | 131° |
| 2026-04-24 19:37 | 29.53592 | -98.47676 | 800 ft | 129 kts | 134° |
| 2026-04-24 19:37 | 29.53112 | -98.47056 | 797 ft | 77 kts | 131° |
| 2026-04-24 19:37 | 29.52863 | -98.46735 | 792 ft | 21 kts | 131° |
| 2026-04-24 19:38 | 29.52799 | -98.46715 | 793 ft | 10 kts | 210° |
| 2026-04-24 19:38 | 29.52767 | -98.46743 | 793 ft | 4 kts | 221° |
| 2026-04-24 19:38 | 29.52755 | -98.46768 | 793 ft | 4 kts | 258° |
| 2026-04-24 19:38 | 29.52767 | -98.46797 | 793 ft | 5 kts | 305° |
| 2026-04-24 19:39 | 29.52791 | -98.46834 | 792 ft | 7 kts | 308° |
| 2026-04-24 19:39 | 29.52825 | -98.46879 | 792 ft | 8 kts | 314° |
| 2026-04-24 19:39 | 29.52863 | -98.46924 | 793 ft | 6 kts | 313° |
| 2026-04-24 19:39 | 29.52880 | -98.46944 | 794 ft | 0 kts | 313° |
| 2026-04-24 19:40 | 29.52881 | -98.46945 | 794 ft | 2 kts | 313° |
| 2026-04-24 19:40 | 29.52935 | -98.47013 | 797 ft | 10 kts | 311° |
| 2026-04-24 19:40 | 29.52978 | -98.47072 | 797 ft | 10 kts | 309° |
| 2026-04-24 19:41 | 29.52995 | -98.47122 | 798 ft | 6 kts | 263° |
| 2026-04-24 19:41 | 29.52986 | -98.47155 | 798 ft | 6 kts | 256° |
| 2026-04-24 19:41 | 29.52998 | -98.47203 | 798 ft | 7 kts | 308° |
| 2026-04-24 19:41 | 29.53030 | -98.47242 | 800 ft | 7 kts | 313° |
| 2026-04-24 19:42 | 29.53062 | -98.47282 | 801 ft | 7 kts | 311° |
| 2026-04-24 19:42 | 29.53090 | -98.47324 | 801 ft | 7 kts | 304° |
| 2026-04-24 19:42 | 29.53118 | -98.47373 | 801 ft | 8 kts | 303° |
| 2026-04-24 19:42 | 29.53152 | -98.47434 | 801 ft | 10 kts | 302° |
| 2026-04-24 19:43 | 29.53199 | -98.47503 | 800 ft | 11 kts | 310° |
| 2026-04-24 19:43 | 29.53251 | -98.47570 | 801 ft | 11 kts | 312° |
| 2026-04-24 19:43 | 29.53299 | -98.47638 | 801 ft | 11 kts | 290° |
| 2026-04-24 19:43 | 29.53278 | -98.47710 | 801 ft | 10 kts | 232° |
| 2026-04-24 19:44 | 29.53219 | -98.47742 | 803 ft | 10 kts | 186° |
| 2026-04-24 19:44 | 29.53152 | -98.47740 | 805 ft | 10 kts | 176° |
| 2026-04-24 19:44 | 29.53110 | -98.47739 | 806 ft | 1 kts | 191° |
| 2026-04-24 19:44 | 29.53104 | -98.47746 | 806 ft | 1 kts | 226° |
| 2026-04-24 19:45 | 29.53103 | -98.47757 | 807 ft | 2 kts | 258° |
| 2026-04-24 19:45 | 29.53103 | -98.47783 | 808 ft | 4 kts | 272° |
| 2026-04-24 19:45 | 29.53104 | -98.47814 | 809 ft | 0 kts | 272° |